createdAt,value
2023-03-01T00:01:29.663Z,84.80
2023-03-01T00:03:59.543Z,93.82
2023-03-01T00:06:33.244Z,75.07
2023-03-01T00:09:04.965Z,80.93
2023-03-01T00:11:35.552Z,85.50
2023-03-01T00:14:09.973Z,80.97
2023-03-01T00:16:45.874Z,87.22
2023-03-01T00:19:19.480Z,86.78
2023-03-01T00:21:51.610Z,90.97
2023-03-01T00:24:22.481Z,90.60
2023-03-01T00:26:58.412Z,83.18
2023-03-01T00:29:27.387Z,92.07
2023-03-01T00:31:58.734Z,89.57
2023-03-01T00:34:29.059Z,99.80
2023-03-01T00:37:08.207Z,90.70
2023-03-01T00:39:37.473Z,87.65
2023-03-01T00:42:08.710Z,76.65
2023-03-01T00:44:39.658Z,82.90
2023-03-01T00:47:09.228Z,78.25
2023-03-01T00:49:40.209Z,74.47
2023-03-01T00:52:11.440Z,78.18
2023-03-01T00:54:40.334Z,75.70
2023-03-01T00:57:11.555Z,79.13
2023-03-01T00:59:42.457Z,70.85
2023-03-01T01:02:13.679Z,81.47
2023-03-01T01:04:40.640Z,75.38
2023-03-01T01:07:11.935Z,73.70
2023-03-01T01:09:39.375Z,72.45
2023-03-01T01:12:10.985Z,71.55
2023-03-01T01:14:41.237Z,74.05
2023-03-01T01:17:10.794Z,81.28
2023-03-01T01:19:41.338Z,76.07
2023-03-01T01:22:12.727Z,77.28
2023-03-01T01:24:41.686Z,79.07
2023-03-01T01:27:11.123Z,70.47
2023-03-01T01:29:42.122Z,74.53
2023-03-01T01:32:13.372Z,75.55
2023-03-01T01:34:44.431Z,70.72
2023-03-01T01:37:13.623Z,68.43
2023-03-01T01:39:44.625Z,65.35
2023-03-01T01:42:20.884Z,67.60
2023-03-01T01:45:29.973Z,62.72
2023-03-01T01:48:07.973Z,70.97
2023-03-01T01:50:39.642Z,64.22
2023-03-01T01:53:21.960Z,70.43
2023-03-01T01:55:58.016Z,66.85
2023-03-01T01:58:32.549Z,64.53
2023-03-01T02:01:04.772Z,67.65
2023-03-01T02:03:38.580Z,62.13
2023-03-01T02:06:18.818Z,63.95
2023-03-01T02:08:50.607Z,63.07
2023-03-01T02:11:22.255Z,66.15
2023-03-01T02:13:53.490Z,67.32
2023-03-01T02:16:25.025Z,64.63
2023-03-01T02:18:54.531Z,67.25
2023-03-01T02:21:47.272Z,66.85
2023-03-01T02:24:46.993Z,68.28
2023-03-01T02:27:20.144Z,67.57
2023-03-01T02:29:50.125Z,73.05
2023-03-01T02:32:27.996Z,67.03
2023-03-01T02:34:57.650Z,68.40
2023-03-01T02:37:29.554Z,69.25
2023-03-01T02:40:03.908Z,67.53
2023-03-01T02:42:38.845Z,69.68
2023-03-01T02:45:08.521Z,69.25
2023-03-01T02:47:39.480Z,71.30
2023-03-01T02:50:30.962Z,70.00
2023-03-01T02:53:13.998Z,70.25
2023-03-01T02:55:43.273Z,72.20
2023-03-01T02:58:14.485Z,72.60
2023-03-01T03:00:47.977Z,76.10
2023-03-01T03:03:22.425Z,68.47
2023-03-01T03:05:51.806Z,66.35
2023-03-01T03:08:26.875Z,68.85
2023-03-01T03:10:56.886Z,67.15
2023-03-01T03:13:31.359Z,73.40
2023-03-01T03:16:03.562Z,67.28
2023-03-01T03:18:34.543Z,65.75
2023-03-01T03:21:03.936Z,73.13
2023-03-01T03:23:34.861Z,61.97
2023-03-01T03:26:07.692Z,72.75
2023-03-01T03:28:42.951Z,75.10
2023-03-01T03:31:14.408Z,69.55
2023-03-01T03:33:45.403Z,73.28
2023-03-01T03:36:20.132Z,75.13
2023-03-01T03:38:51.924Z,62.90
2023-03-01T03:41:21.341Z,68.15
2023-03-01T03:43:50.404Z,68.47
2023-03-01T03:46:21.577Z,74.13
2023-03-01T03:48:53.123Z,69.53
2023-03-01T03:51:25.802Z,67.60
2023-03-01T03:53:56.787Z,69.32
2023-03-01T03:56:28.604Z,70.82
2023-03-01T03:58:59.894Z,74.78
2023-03-01T04:01:29.337Z,74.60
2023-03-01T04:04:07.041Z,75.38
2023-03-01T04:06:38.297Z,73.88
2023-03-01T04:09:11.409Z,73.15
2023-03-01T04:11:42.709Z,67.57
2023-03-01T04:14:13.700Z,69.22
2023-03-01T04:16:47.033Z,72.85
2023-03-01T04:19:17.949Z,69.97
2023-03-01T04:21:49.168Z,66.95
2023-03-01T04:24:18.035Z,67.57
2023-03-01T04:26:49.243Z,67.40
2023-03-01T04:29:18.093Z,75.93
2023-03-01T04:31:52.253Z,59.15
2023-03-01T04:34:21.346Z,70.35
2023-03-01T04:36:52.691Z,76.25
2023-03-01T04:39:21.997Z,70.93
2023-03-01T04:41:53.215Z,65.45
2023-03-01T04:44:22.167Z,68.47
2023-03-01T04:46:53.366Z,72.93
2023-03-01T04:49:24.315Z,64.13
2023-03-01T04:51:55.792Z,71.28
2023-03-01T04:54:27.001Z,69.13
2023-03-01T04:56:56.539Z,77.75
2023-03-01T04:59:27.918Z,65.47
2023-03-01T05:01:59.955Z,77.95
2023-03-01T05:04:29.320Z,70.22
2023-03-01T05:07:01.807Z,63.50
2023-03-01T05:09:30.701Z,66.70
2023-03-01T05:12:02.005Z,69.80
2023-03-01T05:14:34.900Z,70.47
2023-03-01T05:17:07.065Z,64.55
2023-03-01T05:19:36.367Z,71.47
2023-03-01T05:22:06.035Z,69.05
2023-03-01T05:24:38.226Z,69.35
2023-03-01T05:27:07.456Z,66.85
2023-03-01T05:29:37.963Z,69.47
2023-03-01T05:32:09.394Z,65.45
2023-03-01T05:34:39.336Z,67.55
2023-03-01T05:37:11.508Z,70.72
2023-03-01T05:39:40.870Z,65.22
2023-03-01T05:42:14.440Z,70.25
2023-03-01T05:44:43.327Z,70.18
2023-03-01T05:47:12.582Z,74.05
2023-03-01T05:49:41.774Z,68.20
2023-03-01T05:52:13.410Z,76.95
2023-03-01T05:54:44.566Z,71.25
2023-03-01T05:57:15.887Z,76.97
2023-03-01T05:59:46.950Z,70.60
2023-03-01T06:04:49.372Z,66.70
2023-03-01T06:07:18.703Z,67.25
2023-03-01T06:09:49.779Z,65.90
2023-03-01T06:12:21.226Z,60.72
2023-03-01T06:14:52.298Z,66.15
2023-03-01T06:17:23.580Z,64.15
2023-03-01T06:19:54.586Z,60.90
2023-03-01T06:22:26.423Z,55.22
2023-03-01T06:24:55.314Z,63.70
2023-03-01T06:27:26.544Z,58.15
2023-03-01T06:29:53.773Z,73.07
2023-03-01T06:32:25.147Z,61.30
2023-03-01T06:34:52.125Z,63.88
2023-03-01T06:37:23.314Z,58.58
2023-03-01T06:39:52.295Z,61.58
2023-03-01T06:42:21.504Z,58.78
2023-03-01T06:44:50.404Z,69.75
2023-03-01T06:47:22.029Z,63.88
2023-03-01T06:52:20.412Z,64.18
2023-03-01T06:54:49.468Z,67.05
2023-03-01T06:57:18.873Z,60.85
2023-03-01T06:59:50.694Z,63.92
2023-03-01T07:02:22.115Z,56.70
2023-03-01T07:04:52.295Z,63.95
2023-03-01T07:07:21.986Z,67.80
2023-03-01T07:09:51.288Z,58.78
2023-03-01T07:12:22.500Z,66.97
2023-03-01T07:14:53.743Z,70.78
2023-03-01T07:17:23.103Z,65.07
2023-03-01T07:19:54.085Z,89.35
2023-03-01T07:22:23.302Z,80.53
2023-03-01T07:24:54.382Z,82.35
2023-03-01T07:27:25.714Z,64.43
2023-03-01T07:29:56.618Z,73.35
2023-03-01T07:32:27.925Z,60.13
2023-03-01T07:34:56.906Z,73.68
2023-03-01T07:37:28.379Z,98.43
2023-03-01T07:39:59.300Z,60.40
2023-03-01T07:42:30.627Z,64.63
2023-03-01T07:44:59.544Z,62.60
2023-03-01T07:47:31.140Z,67.60
2023-03-01T07:50:00.631Z,52.30
2023-03-01T07:52:32.553Z,58.20
2023-03-01T07:57:32.493Z,64.68
2023-03-01T08:00:01.389Z,52.70
2023-03-01T08:02:41.857Z,56.28
2023-03-01T08:05:11.526Z,50.88
2023-03-01T08:07:42.886Z,52.53
2023-03-01T08:10:12.652Z,38.47
2023-03-01T08:12:43.945Z,48.05
2023-03-01T08:15:13.044Z,44.65
2023-03-01T08:17:44.290Z,50.22
2023-03-01T08:20:13.657Z,49.67
2023-03-01T08:22:45.077Z,53.03
2023-03-01T08:25:14.180Z,45.88
2023-03-01T08:27:43.515Z,48.00
2023-03-01T08:30:12.947Z,69.63
2023-03-01T08:32:44.428Z,39.33
2023-03-01T08:35:13.446Z,35.78
2023-03-01T08:37:44.775Z,35.15
2023-03-01T08:40:14.518Z,40.05
2023-03-01T08:42:46.015Z,40.60
2023-03-01T08:45:19.133Z,36.53
2023-03-01T08:47:50.394Z,38.45
2023-03-01T08:50:21.427Z,37.63
2023-03-01T08:52:52.582Z,35.00
2023-03-01T08:55:21.494Z,36.20
2023-03-01T08:57:54.729Z,33.40
2023-03-01T09:00:24.179Z,37.28
2023-03-01T09:02:55.461Z,37.97
2023-03-01T09:05:24.586Z,37.60
2023-03-01T09:07:56.127Z,39.15
2023-03-01T09:10:25.393Z,38.95
2023-03-01T09:12:56.687Z,35.85
2023-03-01T09:15:26.492Z,33.30
2023-03-01T09:17:58.003Z,44.50
2023-03-01T09:20:26.938Z,38.90
2023-03-01T09:22:58.192Z,41.75
2023-03-01T09:25:25.597Z,41.67
2023-03-01T09:27:58.166Z,40.25
2023-03-01T09:30:27.475Z,39.20
2023-03-01T09:33:00.198Z,34.72
2023-03-01T09:35:31.333Z,33.90
2023-03-01T09:40:32.537Z,33.60
2023-03-01T09:43:31.374Z,35.80
2023-03-01T09:46:07.790Z,34.85
2023-03-01T09:48:45.897Z,37.38
2023-03-01T09:51:36.810Z,33.58
2023-03-01T09:54:11.364Z,34.03
2023-03-01T09:57:28.704Z,34.45
2023-03-01T10:00:21.868Z,32.00
2023-03-01T10:03:00.797Z,32.70
2023-03-01T10:05:42.886Z,45.03
2023-03-01T10:08:11.806Z,32.55
2023-03-01T10:10:49.565Z,33.40
2023-03-01T10:14:03.895Z,32.85
2023-03-01T10:16:57.028Z,48.72
2023-03-01T10:19:32.105Z,49.78
2023-03-01T10:22:32.812Z,33.60
2023-03-01T10:25:06.988Z,42.67
2023-03-01T10:27:50.305Z,35.85
2023-03-01T10:30:42.343Z,34.33
2023-03-01T10:33:35.112Z,33.05
2023-03-01T10:36:06.925Z,29.25
2023-03-01T10:39:21.334Z,34.13
2023-03-01T10:42:08.235Z,28.75
2023-03-01T10:44:50.053Z,26.25
2023-03-01T10:47:27.694Z,33.60
2023-03-01T10:50:20.555Z,27.67
2023-03-01T10:53:03.007Z,23.85
2023-03-01T10:55:40.757Z,20.98
2023-03-01T10:58:16.040Z,27.13
2023-03-01T11:00:50.236Z,27.42
2023-03-01T11:03:25.106Z,31.40
2023-03-01T11:05:57.884Z,23.85
2023-03-01T11:08:46.640Z,19.90
2023-03-01T11:11:37.982Z,28.02
2023-03-01T11:14:27.711Z,23.90
2023-03-01T11:17:05.793Z,23.35
2023-03-01T11:19:36.880Z,23.35
2023-03-01T11:22:16.489Z,25.15
2023-03-01T11:24:57.334Z,21.10
2023-03-01T11:27:45.944Z,25.30
2023-03-01T11:30:31.952Z,25.45
2023-03-01T11:33:11.848Z,27.48
2023-03-01T11:35:57.663Z,39.30
2023-03-01T11:38:30.533Z,23.60
2023-03-01T11:41:09.145Z,25.30
2023-03-01T11:43:40.436Z,20.95
2023-03-01T11:46:36.313Z,22.60
2023-03-01T11:49:35.484Z,26.75
2023-03-01T11:52:24.621Z,19.70
2023-03-01T11:55:16.396Z,22.00
2023-03-01T11:58:11.348Z,25.58
2023-03-01T12:01:04.778Z,23.55
2023-03-01T12:03:53.595Z,20.90
2023-03-01T12:06:29.840Z,22.73
2023-03-01T12:09:07.019Z,19.40
2023-03-01T12:11:47.696Z,20.65
2023-03-01T12:14:45.970Z,21.15
2023-03-01T12:17:39.302Z,23.35
2023-03-01T12:20:50.880Z,22.27
2023-03-01T12:23:48.234Z,20.13
2023-03-01T12:26:34.806Z,19.15
2023-03-01T12:29:34.712Z,21.10
2023-03-01T12:32:22.553Z,20.73
2023-03-01T12:34:59.935Z,80.90
2023-03-01T12:37:43.965Z,22.38
2023-03-01T12:40:15.903Z,16.98
2023-03-01T12:45:41.629Z,24.02
2023-03-01T12:48:52.381Z,64.15
2023-03-01T12:51:29.534Z,61.28
2023-03-01T12:54:02.830Z,22.20
2023-03-01T12:56:36.254Z,29.85
2023-03-01T12:59:07.314Z,21.52
2023-03-01T13:02:00.687Z,21.10
2023-03-01T13:04:59.982Z,19.92
2023-03-01T13:07:29.319Z,21.08
2023-03-01T13:10:09.291Z,19.90
2023-03-01T13:12:53.629Z,21.08
2023-03-01T13:15:24.801Z,20.27
2023-03-01T13:18:00.129Z,22.10
2023-03-01T13:20:36.834Z,21.00
2023-03-01T13:23:27.206Z,23.02
2023-03-01T13:26:16.898Z,22.83
2023-03-01T13:28:54.785Z,23.00
2023-03-01T13:31:28.841Z,21.58
2023-03-01T13:34:04.216Z,20.35
2023-03-01T13:36:37.209Z,27.77
2023-03-01T13:39:48.154Z,17.85
2023-03-01T13:42:38.088Z,21.58
2023-03-01T13:45:18.906Z,20.90
2023-03-01T13:47:55.828Z,21.73
2023-03-01T13:50:34.358Z,16.58
2023-03-01T13:53:07.396Z,18.48
2023-03-01T13:55:48.140Z,19.52
2023-03-01T13:58:28.977Z,24.92
2023-03-01T14:01:07.636Z,17.38
2023-03-01T14:03:44.802Z,21.77
2023-03-01T14:06:21.205Z,19.00
2023-03-01T14:09:02.920Z,20.13
2023-03-01T14:11:34.832Z,19.65
2023-03-01T14:14:27.405Z,33.22
2023-03-01T14:17:16.059Z,20.10
2023-03-01T14:19:47.537Z,19.73
2023-03-01T14:22:28.135Z,26.77
2023-03-01T14:25:20.659Z,25.15
2023-03-01T14:28:23.012Z,24.38
2023-03-01T14:30:56.341Z,26.45
2023-03-01T14:33:29.825Z,19.80
2023-03-01T14:36:12.776Z,18.88
2023-03-01T14:38:44.708Z,22.08
2023-03-01T14:41:19.058Z,28.48
2023-03-01T14:43:52.643Z,20.90
2023-03-01T14:46:32.558Z,23.67
2023-03-01T14:49:16.822Z,15.45
2023-03-01T14:52:10.331Z,18.90
2023-03-01T14:54:55.976Z,33.20
2023-03-01T14:57:27.541Z,17.67
2023-03-01T15:00:03.537Z,19.48
2023-03-01T15:02:33.953Z,21.63
2023-03-01T15:05:09.015Z,23.02
2023-03-01T15:07:44.220Z,25.13
2023-03-01T15:10:23.760Z,23.00
2023-03-01T15:12:53.969Z,25.42
2023-03-01T15:15:29.990Z,20.73
2023-03-01T15:18:05.332Z,21.85
2023-03-01T15:20:39.107Z,22.63
2023-03-01T15:23:22.805Z,24.98
2023-03-01T15:25:59.806Z,22.70
2023-03-01T15:28:44.388Z,19.98
2023-03-01T15:31:26.076Z,22.25
2023-03-01T15:34:12.196Z,24.30
2023-03-01T15:36:51.312Z,22.05
2023-03-01T15:39:41.886Z,25.60
2023-03-01T15:42:34.105Z,25.98
2023-03-01T15:48:06.491Z,35.85
2023-03-01T15:50:42.973Z,23.60
2023-03-01T15:53:17.514Z,26.52
2023-03-01T15:55:51.814Z,29.55
2023-03-01T15:58:25.848Z,28.85
2023-03-01T16:01:02.641Z,29.70
2023-03-01T16:03:32.785Z,25.52
2023-03-01T16:06:04.247Z,29.75
2023-03-01T16:11:07.857Z,31.95
2023-03-01T16:13:37.397Z,33.28
2023-03-01T16:16:08.642Z,30.92
2023-03-01T16:21:09.442Z,28.15
2023-03-01T16:23:39.034Z,30.88
2023-03-01T16:26:10.144Z,28.05
2023-03-01T16:28:42.856Z,27.73
2023-03-01T16:31:14.507Z,30.42
2023-03-01T16:33:45.771Z,30.13
2023-03-01T16:36:17.267Z,30.73
2023-03-01T16:38:49.085Z,34.17
2023-03-01T16:41:22.593Z,27.00
2023-03-01T16:43:54.319Z,29.88
2023-03-01T16:46:29.156Z,25.70
2023-03-01T16:49:00.768Z,28.95
2023-03-01T16:51:31.180Z,34.88
2023-03-01T16:54:02.807Z,29.30
2023-03-01T16:56:34.135Z,29.58
2023-03-01T17:01:40.690Z,30.00
2023-03-01T17:04:16.167Z,27.92
2023-03-01T17:06:47.607Z,31.50
2023-03-01T17:11:52.701Z,28.95
2023-03-01T17:14:25.138Z,27.70
2023-03-01T17:16:54.422Z,25.10
2023-03-01T17:19:23.994Z,30.42
2023-03-01T17:21:55.075Z,30.65
2023-03-01T17:24:25.859Z,33.47
2023-03-01T17:26:59.102Z,30.65
2023-03-01T17:29:31.563Z,30.65
2023-03-01T17:32:03.501Z,37.42
2023-03-01T17:34:34.015Z,27.25
2023-03-01T17:37:05.333Z,28.13
2023-03-01T17:39:36.613Z,32.10
2023-03-01T17:42:08.231Z,31.35
2023-03-01T17:44:41.048Z,37.47
2023-03-01T17:47:15.515Z,35.22
2023-03-01T17:49:44.794Z,30.45
2023-03-01T17:52:15.050Z,30.30
2023-03-01T17:54:46.481Z,33.63
2023-03-01T17:57:17.766Z,33.28
2023-03-01T17:59:46.988Z,33.92
2023-03-01T18:02:16.282Z,33.83
2023-03-01T18:07:18.175Z,31.20
2023-03-01T18:09:48.034Z,34.83
2023-03-01T18:12:19.023Z,30.08
2023-03-01T18:14:53.677Z,39.47
2023-03-01T18:17:28.550Z,34.42
2023-03-01T18:19:59.488Z,40.65
2023-03-01T18:22:33.536Z,32.13
2023-03-01T18:25:05.642Z,41.47
2023-03-01T18:27:37.039Z,35.58
2023-03-01T18:30:10.815Z,40.55
2023-03-01T18:32:40.710Z,38.05
2023-03-01T18:35:12.171Z,41.40
2023-03-01T18:37:41.115Z,40.80
2023-03-01T18:40:13.021Z,40.30
2023-03-01T18:42:44.177Z,42.70
2023-03-01T18:45:19.062Z,41.17
2023-03-01T18:47:50.062Z,46.42
2023-03-01T18:50:20.230Z,37.80
2023-03-01T18:52:51.948Z,48.40
2023-03-01T18:55:23.799Z,44.67
2023-03-01T18:57:54.878Z,46.00
2023-03-01T19:00:26.843Z,50.92
2023-03-01T19:02:58.068Z,48.33
2023-03-01T19:05:28.815Z,52.60
2023-03-01T19:08:00.276Z,47.42
2023-03-01T19:10:29.537Z,48.67
2023-03-01T19:13:00.937Z,49.67
2023-03-01T19:15:30.256Z,47.78
2023-03-01T19:20:33.255Z,54.92
2023-03-01T19:23:04.389Z,58.55
2023-03-01T19:28:05.266Z,51.47
2023-03-01T19:30:36.573Z,63.17
2023-03-01T19:33:08.104Z,56.58
2023-03-01T19:35:37.843Z,59.88
2023-03-01T19:38:08.979Z,63.13
2023-03-01T19:43:09.410Z,65.25
2023-03-01T19:45:40.759Z,57.60
2023-03-01T19:48:09.714Z,61.63
2023-03-01T19:50:42.305Z,56.65
2023-03-01T19:53:12.504Z,70.32
2023-03-01T19:55:44.857Z,59.00
2023-03-01T19:58:14.187Z,62.47
2023-03-01T20:00:48.617Z,57.00
2023-03-01T20:03:18.049Z,61.47
2023-03-01T20:05:49.739Z,56.95
2023-03-01T20:08:16.680Z,60.55
2023-03-01T20:10:48.019Z,57.47
2023-03-01T20:13:17.646Z,68.55
2023-03-01T20:15:47.167Z,62.30
2023-03-01T20:18:16.098Z,58.13
2023-03-01T20:20:51.395Z,53.75
2023-03-01T20:23:23.562Z,60.20
2023-03-01T20:26:01.111Z,64.75
2023-03-01T20:28:33.645Z,62.63
2023-03-01T20:31:10.193Z,56.22
2023-03-01T20:33:43.767Z,59.40
2023-03-01T20:36:13.788Z,61.25
2023-03-01T20:38:44.846Z,61.80
2023-03-01T20:41:14.459Z,58.10
2023-03-01T20:43:45.856Z,56.17
2023-03-01T20:46:15.326Z,59.33
2023-03-01T20:48:46.442Z,56.08
2023-03-01T20:51:19.019Z,58.63
2023-03-01T20:53:50.077Z,58.13
2023-03-01T20:56:21.172Z,52.45
2023-03-01T20:59:18.308Z,53.40
2023-03-01T21:01:47.893Z,60.05
2023-03-01T21:04:19.985Z,59.60
2023-03-01T21:06:49.678Z,68.20
2023-03-01T21:09:21.196Z,67.50
2023-03-01T21:11:51.176Z,60.78
2023-03-01T21:14:20.484Z,59.17
2023-03-01T21:16:53.851Z,61.88
2023-03-01T21:19:26.013Z,62.95
2023-03-01T21:21:57.305Z,67.53
2023-03-01T21:24:26.249Z,66.30
2023-03-01T21:26:57.570Z,66.78
2023-03-01T21:29:27.002Z,62.00
2023-03-01T21:31:56.886Z,62.50
2023-03-01T21:34:25.931Z,66.82
2023-03-01T21:36:57.553Z,55.10
2023-03-01T21:39:29.077Z,57.63
2023-03-01T21:42:04.515Z,65.05
2023-03-01T21:44:36.216Z,68.03
2023-03-01T21:47:05.647Z,71.72
2023-03-01T21:49:36.664Z,71.00
2023-03-01T21:52:08.363Z,68.47
2023-03-01T21:54:39.745Z,69.90
2023-03-01T21:57:11.252Z,72.30
2023-03-01T21:59:40.406Z,74.93
2023-03-01T22:02:16.730Z,69.82
2023-03-01T22:04:48.295Z,66.78
2023-03-01T22:07:17.863Z,75.95
2023-03-01T22:09:48.854Z,81.53
2023-03-01T22:12:18.285Z,72.95
2023-03-01T22:14:49.418Z,77.43
2023-03-01T22:17:18.760Z,74.15
2023-03-01T22:19:50.026Z,73.43
2023-03-01T22:22:19.739Z,77.95
2023-03-01T22:24:50.679Z,82.03
2023-03-01T22:27:19.895Z,81.57
2023-03-01T22:29:51.153Z,79.18
2023-03-01T22:32:22.753Z,84.22
2023-03-01T22:34:53.825Z,78.85
2023-03-01T22:37:23.196Z,78.55
2023-03-01T22:39:54.793Z,85.63
2023-03-01T22:42:24.370Z,79.80
2023-03-01T22:44:55.368Z,73.03
2023-03-01T22:49:58.028Z,80.00
2023-03-01T22:52:29.296Z,78.35
2023-03-01T22:54:56.506Z,84.82
2023-03-01T22:57:28.213Z,75.75
2023-03-01T22:59:57.448Z,81.15
2023-03-01T23:02:29.512Z,77.63
2023-03-01T23:04:58.766Z,80.00
2023-03-01T23:07:28.255Z,83.38
2023-03-01T23:10:04.151Z,92.28
2023-03-01T23:12:33.381Z,81.75
2023-03-01T23:15:04.467Z,76.80
2023-03-01T23:17:32.117Z,80.82
2023-03-01T23:20:12.697Z,85.90
2023-03-01T23:22:44.398Z,84.13
2023-03-01T23:25:13.415Z,84.15
2023-03-01T23:27:44.721Z,80.68
2023-03-01T23:30:16.061Z,83.43
2023-03-01T23:32:47.270Z,79.68
2023-03-01T23:35:16.770Z,86.10
2023-03-01T23:37:47.589Z,89.95
2023-03-01T23:40:17.075Z,86.30
2023-03-01T23:42:46.924Z,82.95
2023-03-01T23:45:18.197Z,85.85
2023-03-01T23:47:47.876Z,79.38
2023-03-01T23:50:19.000Z,76.90
2023-03-01T23:55:21.716Z,80.50
2023-03-01T23:57:51.278Z,85.28
